createdAt,value
2022-08-12T00:00:35.507Z,20.83
2022-08-12T00:03:21.257Z,20.77
2022-08-12T00:06:07.682Z,20.73
2022-08-12T00:08:55.366Z,20.69
2022-08-12T00:11:41.870Z,20.69
2022-08-12T00:14:27.146Z,20.66
2022-08-12T00:17:12.539Z,20.67
2022-08-12T00:19:57.816Z,20.63
2022-08-12T00:22:43.118Z,20.61
2022-08-12T00:25:51.202Z,20.62
2022-08-12T00:28:33.894Z,20.63
2022-08-12T00:31:19.931Z,20.57
2022-08-12T00:34:05.264Z,20.54
2022-08-12T00:36:50.736Z,20.48
2022-08-12T00:39:36.411Z,20.44
2022-08-12T00:42:12.461Z,20.41
2022-08-12T00:44:42.641Z,20.32
2022-08-12T00:47:24.108Z,20.19
2022-08-12T00:49:54.000Z,20.21
2022-08-12T00:52:21.439Z,20.14
2022-08-12T00:54:57.507Z,20.10
2022-08-12T00:57:29.912Z,20.06
2022-08-12T01:00:00.033Z,19.97
2022-08-12T01:02:29.138Z,19.90
2022-08-12T01:05:20.511Z,19.86
2022-08-12T01:08:07.181Z,19.83
2022-08-12T01:10:55.167Z,19.77
2022-08-12T01:13:22.268Z,19.71
2022-08-12T01:15:54.397Z,19.66
2022-08-12T01:18:23.413Z,19.60
2022-08-12T01:21:03.565Z,19.60
2022-08-12T01:24:29.532Z,19.54
2022-08-12T01:26:53.613Z,19.54
2022-08-12T01:29:26.277Z,19.46
2022-08-12T01:31:59.524Z,19.43
2022-08-12T01:34:37.533Z,19.36
2022-08-12T01:37:07.575Z,19.38
2022-08-12T01:40:33.931Z,19.27
2022-08-12T01:42:48.060Z,19.17
2022-08-12T01:45:17.395Z,19.11
2022-08-12T01:48:09.819Z,19.13
2022-08-12T01:50:49.788Z,19.07
2022-08-12T01:53:18.232Z,19.04
2022-08-12T01:55:47.433Z,18.95
2022-08-12T01:58:50.275Z,18.94
2022-08-12T02:01:20.427Z,18.89
2022-08-12T02:04:29.670Z,18.82
2022-08-12T02:07:22.653Z,18.76
2022-08-12T02:11:17.306Z,18.73
2022-08-12T02:14:00.179Z,18.74
2022-08-12T02:16:46.780Z,18.71
2022-08-12T02:19:43.127Z,18.78
2022-08-12T02:22:38.277Z,18.77
2022-08-12T02:25:17.075Z,18.75
2022-08-12T02:27:52.277Z,18.80
2022-08-12T02:30:42.145Z,18.78
2022-08-12T02:33:10.689Z,18.84
2022-08-12T02:35:39.669Z,18.82
2022-08-12T02:38:10.241Z,18.79
2022-08-12T02:40:39.961Z,18.73
2022-08-12T02:43:12.215Z,18.75
2022-08-12T02:45:53.518Z,18.69
2022-08-12T02:48:30.117Z,18.62
2022-08-12T02:51:03.792Z,18.63
2022-08-12T02:53:32.258Z,18.58
2022-08-12T02:56:02.763Z,18.65
2022-08-12T02:58:33.455Z,18.64
2022-08-12T03:01:01.737Z,18.49
2022-08-12T03:03:32.541Z,18.53
2022-08-12T03:06:01.608Z,18.53
2022-08-12T03:08:33.016Z,18.49
2022-08-12T03:11:10.172Z,18.47
2022-08-12T03:13:42.431Z,18.45
2022-08-12T03:16:09.430Z,18.47
2022-08-12T03:18:36.976Z,18.45
2022-08-12T03:21:03.969Z,18.39
2022-08-12T03:23:31.459Z,18.28
2022-08-12T03:26:01.363Z,18.23
2022-08-12T03:28:51.652Z,18.21
2022-08-12T03:31:21.970Z,18.14
2022-08-12T03:34:01.573Z,18.14
2022-08-12T03:36:31.547Z,18.09
2022-08-12T03:39:35.615Z,17.99
2022-08-12T03:42:26.438Z,17.99
2022-08-12T03:45:30.278Z,18.01
2022-08-12T03:48:23.601Z,17.98
2022-08-12T03:51:11.626Z,17.92
2022-08-12T03:53:57.680Z,17.86
2022-08-12T03:56:42.478Z,17.88
2022-08-12T03:59:28.370Z,17.96
2022-08-12T04:01:58.776Z,17.96
2022-08-12T04:04:33.826Z,18.00
2022-08-12T04:07:09.109Z,18.00
2022-08-12T04:09:38.774Z,18.02
2022-08-12T04:12:26.163Z,18.04
2022-08-12T04:14:56.915Z,18.00
2022-08-12T04:17:26.817Z,18.00
2022-08-12T04:19:55.450Z,18.03
2022-08-12T04:22:25.650Z,17.93
2022-08-12T04:24:53.778Z,17.95
2022-08-12T04:27:20.492Z,18.00
2022-08-12T04:30:21.339Z,17.99
2022-08-12T04:32:42.203Z,17.94
2022-08-12T04:35:11.332Z,17.89
2022-08-12T04:37:57.925Z,17.87
2022-08-12T04:40:28.601Z,17.77
2022-08-12T04:42:56.014Z,17.79
2022-08-12T04:45:22.820Z,17.71
2022-08-12T04:47:49.751Z,17.72
2022-08-12T04:50:34.687Z,17.79
2022-08-12T04:53:09.346Z,17.78
2022-08-12T04:55:38.999Z,17.83
2022-08-12T04:58:07.305Z,17.85
2022-08-12T05:00:34.596Z,17.79
2022-08-12T05:03:01.388Z,17.74
2022-08-12T05:05:32.530Z,17.70
2022-08-12T05:08:01.824Z,17.73
2022-08-12T05:10:33.593Z,17.76
2022-08-12T05:13:07.148Z,17.82
2022-08-12T05:15:34.802Z,17.90
2022-08-12T05:18:19.165Z,17.93
2022-08-12T05:20:46.474Z,17.98
2022-08-12T05:23:19.296Z,18.04
2022-08-12T05:25:48.138Z,18.00
2022-08-12T05:28:16.043Z,18.02
2022-08-12T05:30:44.753Z,18.04
2022-08-12T05:33:15.544Z,18.10
2022-08-12T05:35:44.661Z,18.09
2022-08-12T05:38:32.052Z,18.05
2022-08-12T05:41:00.102Z,18.09
2022-08-12T05:43:26.995Z,18.03
2022-08-12T05:45:53.634Z,18.08
2022-08-12T05:48:20.627Z,18.14
2022-08-12T05:50:48.242Z,18.31
2022-08-12T05:53:14.733Z,18.37
2022-08-12T05:55:42.234Z,18.46
2022-08-12T05:58:08.852Z,18.51
2022-08-12T06:00:37.055Z,18.59
2022-08-12T06:03:04.652Z,18.71
2022-08-12T06:05:52.547Z,18.79
2022-08-12T06:08:23.961Z,18.94
2022-08-12T06:10:50.707Z,19.02
2022-08-12T06:13:25.714Z,19.08
2022-08-12T06:16:07.188Z,19.18
2022-08-12T06:18:33.744Z,19.32
2022-08-12T06:21:01.502Z,19.46
2022-08-12T06:23:29.578Z,19.68
2022-08-12T06:25:56.690Z,19.85
2022-08-12T06:28:23.506Z,19.99
2022-08-12T06:31:14.920Z,20.16
2022-08-12T06:33:59.464Z,20.29
2022-08-12T06:36:25.175Z,20.38
2022-08-12T06:38:56.798Z,20.48
2022-08-12T06:42:02.092Z,20.57
2022-08-12T06:44:28.634Z,20.71
2022-08-12T06:46:56.878Z,20.79
2022-08-12T06:49:24.900Z,20.88
2022-08-12T06:51:56.325Z,21.03
2022-08-12T06:54:31.009Z,21.09
2022-08-12T06:57:04.159Z,21.21
2022-08-12T06:59:32.244Z,21.36
2022-08-12T07:01:58.989Z,21.44
2022-08-12T07:04:36.434Z,21.58
2022-08-12T07:07:06.938Z,21.71
2022-08-12T07:10:02.841Z,21.79
2022-08-12T07:12:21.930Z,22.00
2022-08-12T07:14:51.245Z,22.11
2022-08-12T07:17:17.798Z,22.27
2022-08-12T07:19:45.507Z,22.39
2022-08-12T07:22:14.075Z,22.46
2022-08-12T07:24:40.545Z,22.51
2022-08-12T07:27:07.024Z,22.62
2022-08-12T07:29:58.114Z,22.82
2022-08-12T07:32:24.321Z,23.06
2022-08-12T07:34:50.865Z,23.26
2022-08-12T07:37:17.805Z,23.39
2022-08-12T07:39:51.027Z,23.55
2022-08-12T07:42:27.888Z,23.77
2022-08-12T07:44:55.758Z,23.85
2022-08-12T07:47:22.951Z,23.98
2022-08-12T07:50:05.349Z,24.07
2022-08-12T07:52:34.667Z,24.22
2022-08-12T07:55:01.787Z,24.31
2022-08-12T07:57:28.223Z,24.38
2022-08-12T07:59:55.683Z,24.35
2022-08-12T08:02:26.608Z,24.48
2022-08-12T08:04:57.655Z,24.65
2022-08-12T08:07:30.840Z,24.78
2022-08-12T08:10:02.173Z,24.81
2022-08-12T08:12:50.662Z,24.87
2022-08-12T08:15:17.457Z,24.85
2022-08-12T08:20:59.634Z,25.06
2022-08-12T08:23:46.463Z,25.15
2022-08-12T08:26:16.980Z,25.20
2022-08-12T08:28:43.802Z,25.25
2022-08-12T08:31:10.417Z,25.19
2022-08-12T08:34:04.168Z,25.14
2022-08-12T08:36:24.295Z,25.02
2022-08-12T08:38:57.725Z,24.99
2022-08-12T08:42:13.923Z,24.96
2022-08-12T08:44:30.263Z,24.96
2022-08-12T08:46:56.900Z,24.93
2022-08-12T08:49:23.565Z,24.80
2022-08-12T08:51:50.081Z,24.75
2022-08-12T08:54:16.865Z,24.72
2022-08-12T08:56:44.165Z,24.67
2022-08-12T08:59:11.839Z,24.65
2022-08-12T09:01:39.528Z,24.72
2022-08-12T09:05:08.572Z,24.64
2022-08-12T09:06:58.557Z,24.60
2022-08-12T09:09:28.417Z,24.54
2022-08-12T09:12:32.134Z,24.47
2022-08-12T09:14:59.098Z,24.53
2022-08-12T09:17:25.998Z,24.55
2022-08-12T09:19:58.210Z,24.48
2022-08-12T09:25:25.542Z,24.48
2022-08-12T09:28:03.968Z,24.53
2022-08-12T09:30:41.623Z,24.51
2022-08-12T09:33:18.996Z,24.51
2022-08-12T09:35:46.829Z,24.41
2022-08-12T09:38:32.114Z,24.39
2022-08-12T09:42:07.991Z,24.37
2022-08-12T09:44:05.586Z,24.45
2022-08-12T09:46:34.685Z,24.53
2022-08-12T09:49:01.397Z,24.54
2022-08-12T09:51:38.136Z,24.60
2022-08-12T09:54:33.717Z,24.65
2022-08-12T09:58:46.458Z,24.63
2022-08-12T10:00:13.901Z,24.63
2022-08-12T10:02:52.633Z,24.73
2022-08-12T10:05:22.700Z,24.76
2022-08-12T10:08:12.079Z,24.79
2022-08-12T10:10:58.518Z,24.98
2022-08-12T10:13:43.576Z,25.02
2022-08-12T10:16:39.095Z,25.03
2022-08-12T10:19:06.056Z,25.02
2022-08-12T10:21:44.959Z,25.06
2022-08-12T10:24:14.573Z,24.94
2022-08-12T10:27:14.431Z,24.81
2022-08-12T10:30:37.438Z,24.92
2022-08-12T10:32:44.782Z,25.03
2022-08-12T10:35:20.683Z,25.01
2022-08-12T10:38:34.384Z,25.02
2022-08-12T10:40:54.892Z,25.06
2022-08-12T10:43:54.150Z,25.13
2022-08-12T10:46:24.352Z,25.42
2022-08-12T10:49:06.214Z,25.63
2022-08-12T10:52:03.399Z,25.71
2022-08-12T10:54:36.280Z,25.72
2022-08-12T10:57:02.815Z,25.79
2022-08-12T10:59:58.284Z,25.73
2022-08-12T11:04:27.266Z,25.80
2022-08-12T11:07:02.070Z,25.78
2022-08-12T11:08:37.759Z,25.62
2022-08-12T11:10:39.029Z,25.59
2022-08-12T11:13:09.307Z,25.63
2022-08-12T11:16:19.087Z,25.68
2022-08-12T11:18:23.937Z,25.69
2022-08-12T11:20:52.081Z,25.70
2022-08-12T11:23:25.018Z,25.65
2022-08-12T11:26:06.000Z,25.65
2022-08-12T11:28:37.103Z,25.73
2022-08-12T11:31:06.806Z,25.76
2022-08-12T11:34:05.010Z,25.91
2022-08-12T11:36:23.049Z,26.09
2022-08-12T11:38:51.335Z,26.09
2022-08-12T11:41:31.565Z,26.31
2022-08-12T11:44:27.554Z,26.21
2022-08-12T11:46:51.191Z,26.18
2022-08-12T11:49:31.647Z,26.11
2022-08-12T11:52:00.464Z,26.21
2022-08-12T11:54:29.906Z,26.22
2022-08-12T11:57:00.250Z,26.41
2022-08-12T12:02:20.227Z,26.70
2022-08-12T12:04:52.674Z,26.67
2022-08-12T12:07:22.618Z,26.69
2022-08-12T12:09:53.439Z,26.62
2022-08-12T12:12:22.311Z,26.60
2022-08-12T12:14:54.726Z,26.49
2022-08-12T12:17:25.427Z,26.63
2022-08-12T12:19:53.377Z,26.81
2022-08-12T12:22:23.113Z,27.05
2022-08-12T12:25:13.590Z,27.06
2022-08-12T12:28:04.631Z,27.10
2022-08-12T12:30:37.279Z,27.08
2022-08-12T12:33:05.576Z,27.19
2022-08-12T12:36:19.858Z,27.26
2022-08-12T12:38:25.225Z,27.27
2022-08-12T12:40:53.069Z,27.23
2022-08-12T12:43:28.764Z,27.24
2022-08-12T12:46:07.437Z,27.46
2022-08-12T12:48:35.617Z,27.52
2022-08-12T12:51:48.313Z,27.51
2022-08-12T12:54:08.200Z,27.37
2022-08-12T12:56:42.296Z,27.33
2022-08-12T12:59:56.723Z,27.37
2022-08-12T13:01:56.206Z,27.40
2022-08-12T13:04:24.580Z,27.50
2022-08-12T13:06:52.035Z,27.48
2022-08-12T13:09:19.096Z,27.55
2022-08-12T13:11:53.037Z,27.52
2022-08-12T13:14:28.694Z,27.56
2022-08-12T13:16:57.736Z,27.48
2022-08-12T13:19:37.815Z,27.43
2022-08-12T13:22:19.350Z,27.39
2022-08-12T13:24:51.822Z,27.60
2022-08-12T13:27:21.016Z,27.58
2022-08-12T13:29:47.453Z,27.67
2022-08-12T13:32:28.094Z,27.69
2022-08-12T13:35:04.313Z,27.72
2022-08-12T13:37:54.904Z,27.69
2022-08-12T13:40:29.946Z,27.73
2022-08-12T13:43:01.653Z,27.82
2022-08-12T13:45:30.193Z,27.91
2022-08-12T13:48:03.190Z,27.98
2022-08-12T13:50:38.046Z,28.00
2022-08-12T13:53:23.726Z,28.18
2022-08-12T13:55:59.427Z,28.25
2022-08-12T13:58:28.826Z,28.34
2022-08-12T14:00:58.191Z,28.36
2022-08-12T14:03:28.201Z,28.34
2022-08-12T14:06:15.464Z,28.34
2022-08-12T14:08:43.032Z,28.36
2022-08-12T14:11:09.707Z,28.34
2022-08-12T14:14:03.230Z,28.38
2022-08-12T14:16:38.015Z,28.42
2022-08-12T14:19:22.237Z,28.52
2022-08-12T14:21:59.133Z,28.52
2022-08-12T14:24:27.360Z,28.60
2022-08-12T14:26:58.741Z,28.61
2022-08-12T14:29:55.722Z,28.59
2022-08-12T14:32:17.823Z,28.52
2022-08-12T14:34:46.841Z,28.55
2022-08-12T14:37:56.137Z,28.57
2022-08-12T14:40:00.502Z,28.60
2022-08-12T14:42:28.148Z,28.68
2022-08-12T14:44:59.934Z,28.77
2022-08-12T14:47:35.271Z,28.68
2022-08-12T14:50:58.470Z,28.73
2022-08-12T14:58:28.517Z,28.52
2022-08-12T15:01:21.359Z,28.38
2022-08-12T15:03:57.074Z,28.27
2022-08-12T15:06:43.878Z,28.47
2022-08-12T15:09:14.092Z,28.47
2022-08-12T15:11:54.984Z,28.45
2022-08-12T15:14:26.719Z,28.63
2022-08-12T15:16:56.593Z,28.67
2022-08-12T15:20:12.169Z,28.57
2022-08-12T15:22:37.407Z,28.55
2022-08-12T15:25:03.861Z,28.55
2022-08-12T15:28:04.066Z,28.67
2022-08-12T15:30:24.686Z,28.73
2022-08-12T15:32:53.628Z,28.70
2022-08-12T15:35:27.430Z,28.73
2022-08-12T15:38:10.266Z,28.64
2022-08-12T15:40:46.742Z,28.65
2022-08-12T15:43:51.170Z,28.54
2022-08-12T15:46:02.335Z,28.63
2022-08-12T15:48:32.794Z,28.64
2022-08-12T15:51:00.434Z,28.65
2022-08-12T15:53:46.547Z,28.65
2022-08-12T15:56:29.102Z,28.61
2022-08-12T15:58:59.051Z,28.63
2022-08-12T16:01:35.090Z,28.63
2022-08-12T16:04:02.851Z,28.67
2022-08-12T16:07:02.284Z,28.61
2022-08-12T16:09:56.379Z,28.53
2022-08-12T16:12:12.000Z,28.50
2022-08-12T16:14:39.119Z,28.49
2022-08-12T16:17:09.053Z,28.48
2022-08-12T16:20:03.489Z,28.41
2022-08-12T16:22:28.891Z,28.30
2022-08-12T16:24:56.543Z,28.26
2022-08-12T16:27:25.483Z,28.21
2022-08-12T16:29:57.914Z,28.20
2022-08-12T16:32:31.726Z,28.14
2022-08-12T16:35:00.627Z,28.09
2022-08-12T16:37:32.756Z,28.03
2022-08-12T16:40:15.350Z,27.98
2022-08-12T16:42:53.736Z,27.96
2022-08-12T16:46:04.009Z,27.90
2022-08-12T16:48:33.653Z,27.79
2022-08-12T16:51:09.537Z,27.74
2022-08-12T16:53:44.567Z,27.68
2022-08-12T16:56:15.325Z,27.66
2022-08-12T16:58:43.448Z,27.64
2022-08-12T17:01:14.546Z,27.59
2022-08-12T17:04:08.213Z,27.53
2022-08-12T17:06:35.592Z,27.45
2022-08-12T17:09:08.790Z,27.48
2022-08-12T17:11:44.401Z,27.42
2022-08-12T17:14:10.947Z,27.44
2022-08-12T17:16:40.258Z,27.42
2022-08-12T17:19:09.279Z,27.33
2022-08-12T17:21:41.277Z,27.28
2022-08-12T17:24:30.525Z,27.27
2022-08-12T17:26:59.358Z,27.21
2022-08-12T17:30:00.404Z,27.15
2022-08-12T17:32:14.341Z,27.12
2022-08-12T17:35:00.413Z,27.17
2022-08-12T17:37:27.549Z,27.13
2022-08-12T17:40:12.313Z,27.09
2022-08-12T17:42:43.528Z,27.09
2022-08-12T17:45:18.148Z,27.03
2022-08-12T17:48:01.000Z,26.91
2022-08-12T17:50:28.709Z,26.89
2022-08-12T17:52:59.173Z,26.77
2022-08-12T17:55:43.242Z,26.65
2022-08-12T17:58:13.991Z,26.57
2022-08-12T18:00:45.954Z,26.54
2022-08-12T18:04:05.145Z,26.44
2022-08-12T18:06:08.478Z,26.43
2022-08-12T18:08:43.351Z,26.23
2022-08-12T18:12:06.271Z,26.16
2022-08-12T18:14:27.778Z,26.12
2022-08-12T18:16:55.294Z,26.13
2022-08-12T18:19:21.710Z,26.04
2022-08-12T18:22:02.174Z,25.92
2022-08-12T18:24:30.274Z,25.90
2022-08-12T18:26:58.342Z,25.87
2022-08-12T18:29:27.128Z,25.82
2022-08-12T18:32:35.150Z,25.73
2022-08-12T18:34:57.736Z,25.68
2022-08-12T18:37:41.650Z,25.59
2022-08-12T18:40:27.363Z,25.48
2022-08-12T18:42:54.735Z,25.44
2022-08-12T18:45:31.415Z,25.43
2022-08-12T18:48:14.860Z,25.35
2022-08-12T18:50:49.950Z,25.32
2022-08-12T18:54:06.648Z,25.19
2022-08-12T18:56:06.592Z,25.17
2022-08-12T18:58:59.808Z,25.17
2022-08-12T19:02:19.903Z,25.08
2022-08-12T19:04:14.357Z,25.01
2022-08-12T19:06:41.099Z,24.94
2022-08-12T19:09:15.081Z,24.89
2022-08-12T19:12:00.905Z,24.83
2022-08-12T19:14:32.541Z,24.77
2022-08-12T19:17:03.569Z,24.75
2022-08-12T19:19:41.520Z,24.69
2022-08-12T19:22:08.265Z,24.64
2022-08-12T19:24:53.422Z,24.61
2022-08-12T19:27:21.369Z,24.53
2022-08-12T19:30:06.544Z,24.40
2022-08-12T19:32:35.535Z,24.42
2022-08-12T19:38:03.809Z,24.39
2022-08-12T19:40:34.912Z,24.42
2022-08-12T19:43:20.309Z,24.36
2022-08-12T19:45:56.654Z,24.26
2022-08-12T19:48:32.811Z,24.14
2022-08-12T19:51:08.658Z,24.15
2022-08-12T19:53:57.042Z,24.08
2022-08-12T19:56:22.585Z,24.06
2022-08-12T19:58:52.338Z,24.00
2022-08-12T20:01:21.479Z,24.02
2022-08-12T20:03:57.458Z,24.06
2022-08-12T20:06:29.304Z,23.99
2022-08-12T20:08:58.025Z,24.00
2022-08-12T20:12:13.651Z,23.92
2022-08-12T20:14:18.088Z,23.92
2022-08-12T20:16:52.450Z,23.89
2022-08-12T20:19:52.447Z,23.85
2022-08-12T20:22:15.049Z,23.86
2022-08-12T20:24:51.168Z,23.84
2022-08-12T20:27:29.165Z,23.83
2022-08-12T20:30:11.475Z,23.78
2022-08-12T20:33:00.766Z,23.78
2022-08-12T20:35:38.978Z,23.71
2022-08-12T20:38:26.804Z,23.65
2022-08-12T20:40:54.662Z,23.64
2022-08-12T20:43:24.126Z,23.57
2022-08-12T20:45:57.186Z,23.47
2022-08-12T20:48:25.353Z,23.38
2022-08-12T20:50:55.484Z,23.39
2022-08-12T20:53:33.241Z,23.34
2022-08-12T20:56:30.819Z,23.30
2022-08-12T20:58:59.817Z,23.16
2022-08-12T21:01:36.618Z,23.12
2022-08-12T21:04:32.250Z,23.02
2022-08-12T21:07:04.656Z,22.94
2022-08-12T21:09:50.220Z,22.84
2022-08-12T21:12:30.912Z,22.74
2022-08-12T21:15:23.677Z,22.69
2022-08-12T21:18:10.632Z,22.67
2022-08-12T21:20:50.598Z,22.63
2022-08-12T21:23:19.065Z,22.54
2022-08-12T21:25:46.070Z,22.46
2022-08-12T21:28:18.897Z,22.39
2022-08-12T21:31:11.245Z,22.32
2022-08-12T21:34:06.351Z,22.30
2022-08-12T21:36:34.430Z,22.35
2022-08-12T21:39:20.623Z,22.40
2022-08-12T21:41:53.112Z,22.41
2022-08-12T21:45:47.574Z,22.39
2022-08-12T21:47:22.345Z,22.40
2022-08-12T21:50:03.899Z,22.32
2022-08-12T21:52:40.408Z,22.23
2022-08-12T21:55:17.845Z,22.08
2022-08-12T21:57:51.627Z,22.04
2022-08-12T22:00:23.731Z,21.89
2022-08-12T22:03:08.914Z,21.83
2022-08-12T22:05:54.081Z,21.72
2022-08-12T22:08:22.203Z,21.65
2022-08-12T22:10:51.134Z,21.65
2022-08-12T22:14:02.244Z,21.60
2022-08-12T22:16:06.808Z,21.55
2022-08-12T22:18:33.377Z,21.46
2022-08-12T22:21:00.044Z,21.40
2022-08-12T22:23:28.401Z,21.37
2022-08-12T22:26:29.463Z,21.30
2022-08-12T22:29:19.963Z,21.28
2022-08-12T22:31:48.117Z,21.21
2022-08-12T22:34:18.232Z,21.11
2022-08-12T22:36:45.563Z,21.13
2022-08-12T22:39:15.919Z,21.09
2022-08-12T22:42:01.905Z,21.06
2022-08-12T22:44:54.927Z,21.03
2022-08-12T22:47:54.268Z,20.98
2022-08-12T22:50:28.884Z,20.93
2022-08-12T22:53:15.261Z,20.94
2022-08-12T22:56:05.747Z,20.89
2022-08-12T22:58:34.035Z,20.84
2022-08-12T23:01:02.244Z,20.77
2022-08-12T23:03:48.116Z,20.77
2022-08-12T23:06:22.072Z,20.74
2022-08-12T23:08:49.777Z,20.70
2022-08-12T23:11:17.967Z,20.65
2022-08-12T23:14:00.709Z,20.60
2022-08-12T23:16:33.496Z,20.59
2022-08-12T23:19:10.482Z,20.56
2022-08-12T23:22:05.471Z,20.51
2022-08-12T23:24:55.806Z,20.42
2022-08-12T23:27:51.659Z,20.40
2022-08-12T23:30:31.571Z,20.38
2022-08-12T23:33:01.724Z,20.33
2022-08-12T23:35:53.728Z,20.28
2022-08-12T23:38:30.136Z,20.19
2022-08-12T23:41:01.199Z,20.13
2022-08-12T23:43:39.095Z,20.07
2022-08-12T23:46:08.716Z,20.06
2022-08-12T23:48:37.363Z,19.99
2022-08-12T23:51:22.040Z,19.98
2022-08-12T23:54:07.092Z,19.93
2022-08-12T23:56:35.377Z,19.90
2022-08-12T23:59:06.853Z,19.79
